sensor_id;sensor_type;location;lat;lon;timestamp;temperature;humidity
5675;DHT22;2860;54.284;10.158;2023-05-10T00:01:33;11.80;99.90
5675;DHT22;2860;54.284;10.158;2023-05-10T00:03:59;11.70;99.90
5675;DHT22;2860;54.284;10.158;2023-05-10T00:06:24;11.70;99.90
5675;DHT22;2860;54.284;10.158;2023-05-10T00:08:50;11.70;99.90
5675;DHT22;2860;54.284;10.158;2023-05-10T00:11:15;11.70;99.90
5675;DHT22;2860;54.284;10.158;2023-05-10T00:13:41;11.70;99.90
5675;DHT22;2860;54.284;10.158;2023-05-10T00:16:06;11.70;99.90
5675;DHT22;2860;54.284;10.158;2023-05-10T00:18:32;11.70;99.90
5675;DHT22;2860;54.284;10.158;2023-05-10T00:20:58;11.80;99.90
5675;DHT22;2860;54.284;10.158;2023-05-10T00:23:23;11.80;99.90
5675;DHT22;2860;54.284;10.158;2023-05-10T00:25:48;11.70;99.90
5675;DHT22;2860;54.284;10.158;2023-05-10T00:28:14;11.60;99.90
5675;DHT22;2860;54.284;10.158;2023-05-10T00:30:40;11.50;99.90
5675;DHT22;2860;54.284;10.158;2023-05-10T00:33:05;11.40;99.90
5675;DHT22;2860;54.284;10.158;2023-05-10T00:35:31;11.30;99.90
5675;DHT22;2860;54.284;10.158;2023-05-10T00:37:56;11.30;99.90
5675;DHT22;2860;54.284;10.158;2023-05-10T00:40:22;11.30;99.90
5675;DHT22;2860;54.284;10.158;2023-05-10T00:42:48;11.30;99.90
5675;DHT22;2860;54.284;10.158;2023-05-10T00:45:13;11.30;99.90
5675;DHT22;2860;54.284;10.158;2023-05-10T00:47:39;11.30;99.90
5675;DHT22;2860;54.284;10.158;2023-05-10T00:50:05;11.40;99.90
5675;DHT22;2860;54.284;10.158;2023-05-10T00:52:31;11.40;99.90
5675;DHT22;2860;54.284;10.158;2023-05-10T00:54:57;11.30;99.90
5675;DHT22;2860;54.284;10.158;2023-05-10T00:57:24;11.30;99.90
5675;DHT22;2860;54.284;10.158;2023-05-10T00:59:50;11.40;99.90
5675;DHT22;2860;54.284;10.158;2023-05-10T01:02:16;11.40;99.90
5675;DHT22;2860;54.284;10.158;2023-05-10T01:04:43;11.30;99.90
5675;DHT22;2860;54.284;10.158;2023-05-10T01:07:08;11.30;99.90
5675;DHT22;2860;54.284;10.158;2023-05-10T01:09:34;11.30;99.90
5675;DHT22;2860;54.284;10.158;2023-05-10T01:12:00;11.40;99.90
5675;DHT22;2860;54.284;10.158;2023-05-10T01:14:26;11.40;99.90
5675;DHT22;2860;54.284;10.158;2023-05-10T01:16:52;11.40;99.90
5675;DHT22;2860;54.284;10.158;2023-05-10T01:19:29;11.40;99.90
5675;DHT22;2860;54.284;10.158;2023-05-10T01:24:58;11.40;99.90
5675;DHT22;2860;54.284;10.158;2023-05-10T01:28:02;11.40;99.90
5675;DHT22;2860;54.284;10.158;2023-05-10T01:33:52;11.30;99.90
5675;DHT22;2860;54.284;10.158;2023-05-10T01:36:27;11.20;99.90
5675;DHT22;2860;54.284;10.158;2023-05-10T01:39:01;11.10;99.90
5675;DHT22;2860;54.284;10.158;2023-05-10T01:41:40;11.10;99.90
5675;DHT22;2860;54.284;10.158;2023-05-10T01:46:40;11.10;99.90
5675;DHT22;2860;54.284;10.158;2023-05-10T01:49:23;11.10;99.90
5675;DHT22;2860;54.284;10.158;2023-05-10T01:51:55;11.00;99.90
5675;DHT22;2860;54.284;10.158;2023-05-10T01:54:23;11.00;99.90
5675;DHT22;2860;54.284;10.158;2023-05-10T01:56:54;10.90;99.90
5675;DHT22;2860;54.284;10.158;2023-05-10T01:59:22;10.80;99.90
5675;DHT22;2860;54.284;10.158;2023-05-10T02:01:52;10.70;99.90
5675;DHT22;2860;54.284;10.158;2023-05-10T02:04:19;10.70;99.90
5675;DHT22;2860;54.284;10.158;2023-05-10T02:06:47;10.70;99.90
5675;DHT22;2860;54.284;10.158;2023-05-10T02:09:14;10.70;99.90
5675;DHT22;2860;54.284;10.158;2023-05-10T02:11:42;10.80;99.90
5675;DHT22;2860;54.284;10.158;2023-05-10T02:14:09;10.80;99.90
5675;DHT22;2860;54.284;10.158;2023-05-10T02:16:36;10.80;99.90
5675;DHT22;2860;54.284;10.158;2023-05-10T02:19:03;10.90;99.90
5675;DHT22;2860;54.284;10.158;2023-05-10T02:21:30;10.90;99.90
5675;DHT22;2860;54.284;10.158;2023-05-10T02:23:57;10.90;99.90
5675;DHT22;2860;54.284;10.158;2023-05-10T02:26:23;10.90;99.90
5675;DHT22;2860;54.284;10.158;2023-05-10T02:28:50;10.90;99.90
5675;DHT22;2860;54.284;10.158;2023-05-10T02:31:18;10.90;99.90
5675;DHT22;2860;54.284;10.158;2023-05-10T02:33:45;10.90;99.90
5675;DHT22;2860;54.284;10.158;2023-05-10T02:36:12;10.90;99.90
5675;DHT22;2860;54.284;10.158;2023-05-10T02:38:39;10.80;99.90
5675;DHT22;2860;54.284;10.158;2023-05-10T02:41:05;10.70;99.90
5675;DHT22;2860;54.284;10.158;2023-05-10T02:43:33;10.70;99.90
5675;DHT22;2860;54.284;10.158;2023-05-10T02:45:59;10.60;99.90
5675;DHT22;2860;54.284;10.158;2023-05-10T02:48:24;10.60;99.90
5675;DHT22;2860;54.284;10.158;2023-05-10T02:50:52;10.60;99.90
5675;DHT22;2860;54.284;10.158;2023-05-10T02:53:22;10.50;99.90
5675;DHT22;2860;54.284;10.158;2023-05-10T02:55:51;10.50;99.90
5675;DHT22;2860;54.284;10.158;2023-05-10T02:58:17;10.50;99.90
5675;DHT22;2860;54.284;10.158;2023-05-10T03:00:46;10.40;99.90
5675;DHT22;2860;54.284;10.158;2023-05-10T03:03:12;10.40;99.90
5675;DHT22;2860;54.284;10.158;2023-05-10T03:05:37;10.50;99.90
5675;DHT22;2860;54.284;10.158;2023-05-10T03:08:03;10.50;99.90
5675;DHT22;2860;54.284;10.158;2023-05-10T03:10:30;10.50;99.90
5675;DHT22;2860;54.284;10.158;2023-05-10T03:13:33;10.50;99.90
5675;DHT22;2860;54.284;10.158;2023-05-10T03:16:29;10.50;99.90
5675;DHT22;2860;54.284;10.158;2023-05-10T03:19:00;10.50;99.90
5675;DHT22;2860;54.284;10.158;2023-05-10T03:21:29;10.50;99.90
5675;DHT22;2860;54.284;10.158;2023-05-10T03:24:00;10.50;99.90
5675;DHT22;2860;54.284;10.158;2023-05-10T03:26:27;10.50;99.90
5675;DHT22;2860;54.284;10.158;2023-05-10T03:28:53;10.50;99.90
5675;DHT22;2860;54.284;10.158;2023-05-10T03:31:19;10.60;99.90
5675;DHT22;2860;54.284;10.158;2023-05-10T03:33:49;10.60;99.90
5675;DHT22;2860;54.284;10.158;2023-05-10T03:36:15;10.60;99.90
5675;DHT22;2860;54.284;10.158;2023-05-10T03:38:41;10.60;99.90
5675;DHT22;2860;54.284;10.158;2023-05-10T03:41:07;10.60;99.90
5675;DHT22;2860;54.284;10.158;2023-05-10T03:43:32;10.50;99.90
5675;DHT22;2860;54.284;10.158;2023-05-10T03:45:58;10.50;99.90
5675;DHT22;2860;54.284;10.158;2023-05-10T03:48:23;10.50;99.90
5675;DHT22;2860;54.284;10.158;2023-05-10T03:50:49;10.50;99.90
5675;DHT22;2860;54.284;10.158;2023-05-10T03:53:15;10.50;99.90
5675;DHT22;2860;54.284;10.158;2023-05-10T03:55:41;10.60;99.90
5675;DHT22;2860;54.284;10.158;2023-05-10T03:58:06;10.60;99.90
5675;DHT22;2860;54.284;10.158;2023-05-10T04:00:32;10.60;99.90
5675;DHT22;2860;54.284;10.158;2023-05-10T04:02:58;10.50;99.90
5675;DHT22;2860;54.284;10.158;2023-05-10T04:05:23;10.50;99.90
5675;DHT22;2860;54.284;10.158;2023-05-10T04:07:49;10.50;99.90
5675;DHT22;2860;54.284;10.158;2023-05-10T04:10:16;10.50;99.90
5675;DHT22;2860;54.284;10.158;2023-05-10T04:12:42;10.60;99.90
5675;DHT22;2860;54.284;10.158;2023-05-10T04:15:08;10.60;99.90
5675;DHT22;2860;54.284;10.158;2023-05-10T04:17:33;10.70;99.90
5675;DHT22;2860;54.284;10.158;2023-05-10T04:19:59;10.70;99.90
5675;DHT22;2860;54.284;10.158;2023-05-10T04:22:24;10.70;99.90
5675;DHT22;2860;54.284;10.158;2023-05-10T04:24:50;10.80;99.90
5675;DHT22;2860;54.284;10.158;2023-05-10T04:27:15;10.80;99.90
5675;DHT22;2860;54.284;10.158;2023-05-10T04:29:41;10.90;99.90
5675;DHT22;2860;54.284;10.158;2023-05-10T04:32:06;10.90;99.90
5675;DHT22;2860;54.284;10.158;2023-05-10T04:34:32;11.00;99.90
5675;DHT22;2860;54.284;10.158;2023-05-10T04:36:59;11.00;99.90
5675;DHT22;2860;54.284;10.158;2023-05-10T04:39:25;11.10;99.90
5675;DHT22;2860;54.284;10.158;2023-05-10T04:41:50;11.10;99.90
5675;DHT22;2860;54.284;10.158;2023-05-10T04:44:16;11.20;99.90
5675;DHT22;2860;54.284;10.158;2023-05-10T04:46:41;11.20;99.90
5675;DHT22;2860;54.284;10.158;2023-05-10T04:49:07;11.20;99.90
5675;DHT22;2860;54.284;10.158;2023-05-10T04:51:32;11.30;99.90
5675;DHT22;2860;54.284;10.158;2023-05-10T04:53:58;11.30;99.90
5675;DHT22;2860;54.284;10.158;2023-05-10T04:56:23;11.40;99.90
5675;DHT22;2860;54.284;10.158;2023-05-10T04:58:49;11.40;99.90
5675;DHT22;2860;54.284;10.158;2023-05-10T05:01:15;11.50;99.90
5675;DHT22;2860;54.284;10.158;2023-05-10T05:03:40;11.50;99.90
5675;DHT22;2860;54.284;10.158;2023-05-10T05:06:06;11.60;99.90
5675;DHT22;2860;54.284;10.158;2023-05-10T05:08:32;11.80;99.90
5675;DHT22;2860;54.284;10.158;2023-05-10T05:10:57;12.00;99.90
5675;DHT22;2860;54.284;10.158;2023-05-10T05:13:23;12.10;99.90
5675;DHT22;2860;54.284;10.158;2023-05-10T05:15:49;12.20;99.90
5675;DHT22;2860;54.284;10.158;2023-05-10T05:18:14;12.40;99.90
5675;DHT22;2860;54.284;10.158;2023-05-10T05:20:39;12.70;99.90
5675;DHT22;2860;54.284;10.158;2023-05-10T05:23:05;12.80;99.90
5675;DHT22;2860;54.284;10.158;2023-05-10T05:25:31;12.80;99.90
5675;DHT22;2860;54.284;10.158;2023-05-10T05:27:56;12.80;99.90
5675;DHT22;2860;54.284;10.158;2023-05-10T05:30:22;12.80;99.90
5675;DHT22;2860;54.284;10.158;2023-05-10T05:32:47;12.80;99.90
5675;DHT22;2860;54.284;10.158;2023-05-10T05:35:13;12.90;99.90
5675;DHT22;2860;54.284;10.158;2023-05-10T05:37:39;13.10;99.90
5675;DHT22;2860;54.284;10.158;2023-05-10T05:40:05;13.50;99.90
5675;DHT22;2860;54.284;10.158;2023-05-10T05:42:31;13.80;99.90
5675;DHT22;2860;54.284;10.158;2023-05-10T05:44:57;13.90;99.90
5675;DHT22;2860;54.284;10.158;2023-05-10T05:47:22;14.00;99.90
5675;DHT22;2860;54.284;10.158;2023-05-10T05:49:48;14.30;99.90
5675;DHT22;2860;54.284;10.158;2023-05-10T05:52:13;14.70;99.90
5675;DHT22;2860;54.284;10.158;2023-05-10T05:54:39;14.80;99.90
5675;DHT22;2860;54.284;10.158;2023-05-10T05:57:05;14.80;99.90
5675;DHT22;2860;54.284;10.158;2023-05-10T05:59:30;15.00;99.90
5675;DHT22;2860;54.284;10.158;2023-05-10T06:01:56;15.10;99.90
5675;DHT22;2860;54.284;10.158;2023-05-10T06:04:21;15.20;99.90
5675;DHT22;2860;54.284;10.158;2023-05-10T06:06:47;15.30;99.90
5675;DHT22;2860;54.284;10.158;2023-05-10T06:09:12;15.50;99.90
5675;DHT22;2860;54.284;10.158;2023-05-10T06:11:38;15.40;99.90
5675;DHT22;2860;54.284;10.158;2023-05-10T06:14:04;15.60;99.90
5675;DHT22;2860;54.284;10.158;2023-05-10T06:16:30;15.50;99.90
5675;DHT22;2860;54.284;10.158;2023-05-10T06:18:56;15.70;99.90
5675;DHT22;2860;54.284;10.158;2023-05-10T06:21:22;15.50;99.90
5675;DHT22;2860;54.284;10.158;2023-05-10T06:23:47;15.40;99.90
5675;DHT22;2860;54.284;10.158;2023-05-10T06:26:13;15.00;99.90
5675;DHT22;2860;54.284;10.158;2023-05-10T06:28:39;14.60;99.90
5675;DHT22;2860;54.284;10.158;2023-05-10T06:31:04;14.30;99.90
5675;DHT22;2860;54.284;10.158;2023-05-10T06:33:30;14.10;99.90
5675;DHT22;2860;54.284;10.158;2023-05-10T06:35:56;14.00;99.90
5675;DHT22;2860;54.284;10.158;2023-05-10T06:38:22;14.00;99.90
5675;DHT22;2860;54.284;10.158;2023-05-10T06:40:48;14.10;99.90
5675;DHT22;2860;54.284;10.158;2023-05-10T06:43:14;14.10;99.90
5675;DHT22;2860;54.284;10.158;2023-05-10T06:45:39;14.20;99.90
5675;DHT22;2860;54.284;10.158;2023-05-10T06:48:06;14.20;99.90
5675;DHT22;2860;54.284;10.158;2023-05-10T06:50:31;14.30;99.90
5675;DHT22;2860;54.284;10.158;2023-05-10T06:52:57;14.20;99.90
5675;DHT22;2860;54.284;10.158;2023-05-10T06:55:23;14.30;99.90
5675;DHT22;2860;54.284;10.158;2023-05-10T06:57:48;14.50;99.90
5675;DHT22;2860;54.284;10.158;2023-05-10T07:00:14;14.70;99.90
5675;DHT22;2860;54.284;10.158;2023-05-10T07:02:40;14.90;99.90
5675;DHT22;2860;54.284;10.158;2023-05-10T07:05:06;14.90;99.90
5675;DHT22;2860;54.284;10.158;2023-05-10T07:07:32;14.90;99.90
5675;DHT22;2860;54.284;10.158;2023-05-10T07:09:57;15.00;99.90
5675;DHT22;2860;54.284;10.158;2023-05-10T07:12:23;15.10;99.90
5675;DHT22;2860;54.284;10.158;2023-05-10T07:14:49;15.30;99.90
5675;DHT22;2860;54.284;10.158;2023-05-10T07:17:15;15.50;99.90
5675;DHT22;2860;54.284;10.158;2023-05-10T07:19:40;15.50;99.90
5675;DHT22;2860;54.284;10.158;2023-05-10T07:22:06;15.50;99.90
5675;DHT22;2860;54.284;10.158;2023-05-10T07:24:32;15.60;99.90
5675;DHT22;2860;54.284;10.158;2023-05-10T07:26:58;15.50;99.90
5675;DHT22;2860;54.284;10.158;2023-05-10T07:29:23;15.60;99.90
5675;DHT22;2860;54.284;10.158;2023-05-10T07:31:49;15.70;99.90
5675;DHT22;2860;54.284;10.158;2023-05-10T07:34:14;15.60;99.90
5675;DHT22;2860;54.284;10.158;2023-05-10T07:36:40;15.80;99.90
5675;DHT22;2860;54.284;10.158;2023-05-10T07:39:05;15.90;99.90
5675;DHT22;2860;54.284;10.158;2023-05-10T07:41:31;16.00;99.90
5675;DHT22;2860;54.284;10.158;2023-05-10T07:43:56;16.10;99.90
5675;DHT22;2860;54.284;10.158;2023-05-10T07:46:22;16.20;99.90
5675;DHT22;2860;54.284;10.158;2023-05-10T07:48:48;16.50;99.90
5675;DHT22;2860;54.284;10.158;2023-05-10T07:51:13;16.60;99.90
5675;DHT22;2860;54.284;10.158;2023-05-10T07:53:39;16.60;99.90
5675;DHT22;2860;54.284;10.158;2023-05-10T07:56:23;16.70;99.90
5675;DHT22;2860;54.284;10.158;2023-05-10T07:58:50;16.70;99.90
5675;DHT22;2860;54.284;10.158;2023-05-10T08:01:16;16.80;99.90
5675;DHT22;2860;54.284;10.158;2023-05-10T08:03:42;17.00;99.90
5675;DHT22;2860;54.284;10.158;2023-05-10T08:06:07;17.20;99.90
5675;DHT22;2860;54.284;10.158;2023-05-10T08:08:33;17.30;99.90
5675;DHT22;2860;54.284;10.158;2023-05-10T08:10:58;17.40;99.90
5675;DHT22;2860;54.284;10.158;2023-05-10T08:13:24;17.80;99.90
5675;DHT22;2860;54.284;10.158;2023-05-10T08:15:49;18.20;99.90
5675;DHT22;2860;54.284;10.158;2023-05-10T08:18:18;18.40;99.90
5675;DHT22;2860;54.284;10.158;2023-05-10T08:20:43;18.60;99.90
5675;DHT22;2860;54.284;10.158;2023-05-10T08:23:09;18.70;99.90
5675;DHT22;2860;54.284;10.158;2023-05-10T08:25:34;18.90;99.90
5675;DHT22;2860;54.284;10.158;2023-05-10T08:28:00;19.00;99.90
5675;DHT22;2860;54.284;10.158;2023-05-10T08:30:25;19.20;99.90
5675;DHT22;2860;54.284;10.158;2023-05-10T08:32:51;19.00;99.90
5675;DHT22;2860;54.284;10.158;2023-05-10T08:35:16;18.70;99.90
5675;DHT22;2860;54.284;10.158;2023-05-10T08:37:42;18.80;99.90
5675;DHT22;2860;54.284;10.158;2023-05-10T08:40:08;18.70;99.90
5675;DHT22;2860;54.284;10.158;2023-05-10T08:42:39;18.80;99.90
5675;DHT22;2860;54.284;10.158;2023-05-10T08:45:07;18.90;99.90
5675;DHT22;2860;54.284;10.158;2023-05-10T08:47:33;19.00;99.90
5675;DHT22;2860;54.284;10.158;2023-05-10T08:50:00;19.30;99.90
5675;DHT22;2860;54.284;10.158;2023-05-10T08:52:29;19.70;99.90
5675;DHT22;2860;54.284;10.158;2023-05-10T08:54:56;19.90;99.90
5675;DHT22;2860;54.284;10.158;2023-05-10T08:57:21;19.80;99.90
5675;DHT22;2860;54.284;10.158;2023-05-10T08:59:47;19.80;99.90
5675;DHT22;2860;54.284;10.158;2023-05-10T09:02:13;19.40;99.90
5675;DHT22;2860;54.284;10.158;2023-05-10T09:04:39;19.30;99.90
5675;DHT22;2860;54.284;10.158;2023-05-10T09:07:06;19.40;99.90
5675;DHT22;2860;54.284;10.158;2023-05-10T09:09:31;19.50;99.90
5675;DHT22;2860;54.284;10.158;2023-05-10T09:11:57;19.40;99.90
5675;DHT22;2860;54.284;10.158;2023-05-10T09:14:24;19.60;99.90
5675;DHT22;2860;54.284;10.158;2023-05-10T09:16:50;19.80;99.90
5675;DHT22;2860;54.284;10.158;2023-05-10T09:19:16;20.00;99.90
5675;DHT22;2860;54.284;10.158;2023-05-10T09:21:41;20.10;99.90
5675;DHT22;2860;54.284;10.158;2023-05-10T09:24:08;20.10;99.90
5675;DHT22;2860;54.284;10.158;2023-05-10T09:26:34;19.90;99.90
5675;DHT22;2860;54.284;10.158;2023-05-10T09:29:01;19.90;99.90
5675;DHT22;2860;54.284;10.158;2023-05-10T09:31:54;19.70;99.90
5675;DHT22;2860;54.284;10.158;2023-05-10T09:34:29;19.40;99.90
5675;DHT22;2860;54.284;10.158;2023-05-10T09:36:57;19.20;99.90
5675;DHT22;2860;54.284;10.158;2023-05-10T09:39:38;19.40;99.90
5675;DHT22;2860;54.284;10.158;2023-05-10T09:42:08;19.50;99.90
5675;DHT22;2860;54.284;10.158;2023-05-10T09:44:34;19.80;99.90
5675;DHT22;2860;54.284;10.158;2023-05-10T09:47:01;20.10;99.90
5675;DHT22;2860;54.284;10.158;2023-05-10T09:49:27;20.10;99.90
5675;DHT22;2860;54.284;10.158;2023-05-10T09:52:06;20.40;99.90
5675;DHT22;2860;54.284;10.158;2023-05-10T09:54:33;20.80;99.90
5675;DHT22;2860;54.284;10.158;2023-05-10T09:56:59;21.10;99.90
5675;DHT22;2860;54.284;10.158;2023-05-10T09:59:26;21.30;99.90
5675;DHT22;2860;54.284;10.158;2023-05-10T10:01:59;21.50;99.90
5675;DHT22;2860;54.284;10.158;2023-05-10T10:04:25;21.40;99.90
5675;DHT22;2860;54.284;10.158;2023-05-10T10:07:04;21.00;99.90
5675;DHT22;2860;54.284;10.158;2023-05-10T10:09:31;20.70;99.90
5675;DHT22;2860;54.284;10.158;2023-05-10T10:11:56;20.90;99.90
5675;DHT22;2860;54.284;10.158;2023-05-10T10:14:23;21.10;99.90
5675;DHT22;2860;54.284;10.158;2023-05-10T10:16:50;21.30;99.90
5675;DHT22;2860;54.284;10.158;2023-05-10T10:19:20;21.00;99.90
5675;DHT22;2860;54.284;10.158;2023-05-10T10:21:46;20.80;99.90
5675;DHT22;2860;54.284;10.158;2023-05-10T10:24:12;21.10;99.90
5675;DHT22;2860;54.284;10.158;2023-05-10T10:26:38;21.50;99.90
5675;DHT22;2860;54.284;10.158;2023-05-10T10:31:47;21.50;99.90
5675;DHT22;2860;54.284;10.158;2023-05-10T10:34:28;21.30;99.90
5675;DHT22;2860;54.284;10.158;2023-05-10T10:36:55;21.50;99.90
5675;DHT22;2860;54.284;10.158;2023-05-10T10:39:21;21.80;99.90
5675;DHT22;2860;54.284;10.158;2023-05-10T10:41:55;21.80;99.90
5675;DHT22;2860;54.284;10.158;2023-05-10T10:50:02;21.40;99.90
5675;DHT22;2860;54.284;10.158;2023-05-10T10:52:44;21.60;99.90
5675;DHT22;2860;54.284;10.158;2023-05-10T10:55:28;21.90;99.90
5675;DHT22;2860;54.284;10.158;2023-05-10T10:57:56;22.30;99.90
5675;DHT22;2860;54.284;10.158;2023-05-10T11:00:36;22.00;99.90
5675;DHT22;2860;54.284;10.158;2023-05-10T11:03:12;21.80;99.90
5675;DHT22;2860;54.284;10.158;2023-05-10T11:11:09;22.30;99.90
5675;DHT22;2860;54.284;10.158;2023-05-10T11:13:45;22.60;99.90
5675;DHT22;2860;54.284;10.158;2023-05-10T11:16:23;22.50;99.90
5675;DHT22;2860;54.284;10.158;2023-05-10T11:19:04;22.50;99.90
5675;DHT22;2860;54.284;10.158;2023-05-10T11:21:33;22.50;99.90
5675;DHT22;2860;54.284;10.158;2023-05-10T11:24:00;22.30;99.90
5675;DHT22;2860;54.284;10.158;2023-05-10T11:26:31;22.10;99.90
5675;DHT22;2860;54.284;10.158;2023-05-10T11:28:57;22.00;99.90
5675;DHT22;2860;54.284;10.158;2023-05-10T11:31:51;21.70;99.90
5675;DHT22;2860;54.284;10.158;2023-05-10T11:34:26;21.30;99.90
5675;DHT22;2860;54.284;10.158;2023-05-10T11:36:54;20.90;99.90
5675;DHT22;2860;54.284;10.158;2023-05-10T11:39:20;20.70;99.90
5675;DHT22;2860;54.284;10.158;2023-05-10T11:41:48;20.70;99.90
5675;DHT22;2860;54.284;10.158;2023-05-10T11:44:14;20.70;99.90
5675;DHT22;2860;54.284;10.158;2023-05-10T11:46:40;20.60;99.90
5675;DHT22;2860;54.284;10.158;2023-05-10T11:49:07;20.50;99.90
5675;DHT22;2860;54.284;10.158;2023-05-10T11:51:36;20.40;99.90
5675;DHT22;2860;54.284;10.158;2023-05-10T11:54:09;20.40;99.90
5675;DHT22;2860;54.284;10.158;2023-05-10T11:56:35;20.40;99.90
5675;DHT22;2860;54.284;10.158;2023-05-10T11:59:01;20.50;99.90
5675;DHT22;2860;54.284;10.158;2023-05-10T12:01:28;20.60;99.90
5675;DHT22;2860;54.284;10.158;2023-05-10T12:03:55;20.60;99.90
5675;DHT22;2860;54.284;10.158;2023-05-10T12:06:26;20.60;99.90
5675;DHT22;2860;54.284;10.158;2023-05-10T12:08:52;20.50;99.90
5675;DHT22;2860;54.284;10.158;2023-05-10T12:11:19;20.50;99.90
5675;DHT22;2860;54.284;10.158;2023-05-10T12:13:46;20.60;99.90
5675;DHT22;2860;54.284;10.158;2023-05-10T12:16:13;20.50;99.90
5675;DHT22;2860;54.284;10.158;2023-05-10T12:18:40;20.50;99.90
5675;DHT22;2860;54.284;10.158;2023-05-10T12:21:10;20.50;99.90
5675;DHT22;2860;54.284;10.158;2023-05-10T12:23:36;20.50;99.90
5675;DHT22;2860;54.284;10.158;2023-05-10T12:26:02;20.50;99.90
5675;DHT22;2860;54.284;10.158;2023-05-10T12:28:30;20.50;99.90
5675;DHT22;2860;54.284;10.158;2023-05-10T12:30:57;20.30;99.90
5675;DHT22;2860;54.284;10.158;2023-05-10T12:33:24;20.20;99.90
5675;DHT22;2860;54.284;10.158;2023-05-10T12:35:51;19.90;99.90
5675;DHT22;2860;54.284;10.158;2023-05-10T12:41:03;19.20;99.90
5675;DHT22;2860;54.284;10.158;2023-05-10T12:43:29;19.00;99.90
5675;DHT22;2860;54.284;10.158;2023-05-10T12:45:55;18.80;99.90
5675;DHT22;2860;54.284;10.158;2023-05-10T12:48:21;18.70;99.90
5675;DHT22;2860;54.284;10.158;2023-05-10T12:50:47;18.50;99.90
5675;DHT22;2860;54.284;10.158;2023-05-10T12:53:14;18.30;99.90
5675;DHT22;2860;54.284;10.158;2023-05-10T12:55:41;18.20;99.90
5675;DHT22;2860;54.284;10.158;2023-05-10T12:58:07;18.10;99.90
5675;DHT22;2860;54.284;10.158;2023-05-10T13:00:32;18.10;99.90
5675;DHT22;2860;54.284;10.158;2023-05-10T13:02:58;18.00;99.90
5675;DHT22;2860;54.284;10.158;2023-05-10T13:05:23;17.90;99.90
5675;DHT22;2860;54.284;10.158;2023-05-10T13:07:49;17.90;99.90
5675;DHT22;2860;54.284;10.158;2023-05-10T13:10:14;17.80;99.90
5675;DHT22;2860;54.284;10.158;2023-05-10T13:12:40;17.80;99.90
5675;DHT22;2860;54.284;10.158;2023-05-10T13:15:06;17.70;99.90
5675;DHT22;2860;54.284;10.158;2023-05-10T13:17:32;17.50;99.90
5675;DHT22;2860;54.284;10.158;2023-05-10T13:19:57;17.40;99.90
5675;DHT22;2860;54.284;10.158;2023-05-10T13:22:23;17.20;99.90
5675;DHT22;2860;54.284;10.158;2023-05-10T13:24:48;17.10;99.90
5675;DHT22;2860;54.284;10.158;2023-05-10T13:27:14;17.10;99.90
5675;DHT22;2860;54.284;10.158;2023-05-10T13:29:39;17.10;99.90
5675;DHT22;2860;54.284;10.158;2023-05-10T13:32:05;17.10;99.90
5675;DHT22;2860;54.284;10.158;2023-05-10T13:34:30;17.10;99.90
5675;DHT22;2860;54.284;10.158;2023-05-10T13:36:56;17.20;99.90
5675;DHT22;2860;54.284;10.158;2023-05-10T13:39:22;17.20;99.90
5675;DHT22;2860;54.284;10.158;2023-05-10T13:41:48;17.20;99.90
5675;DHT22;2860;54.284;10.158;2023-05-10T13:44:14;17.20;99.90
5675;DHT22;2860;54.284;10.158;2023-05-10T13:46:41;17.10;99.90
5675;DHT22;2860;54.284;10.158;2023-05-10T13:49:08;17.10;99.90
5675;DHT22;2860;54.284;10.158;2023-05-10T13:51:34;17.10;99.90
5675;DHT22;2860;54.284;10.158;2023-05-10T13:54:01;17.00;99.90
5675;DHT22;2860;54.284;10.158;2023-05-10T13:56:26;16.90;99.90
5675;DHT22;2860;54.284;10.158;2023-05-10T13:58:52;16.90;99.90
5675;DHT22;2860;54.284;10.158;2023-05-10T14:01:18;16.90;99.90
5675;DHT22;2860;54.284;10.158;2023-05-10T14:03:43;16.90;99.90
5675;DHT22;2860;54.284;10.158;2023-05-10T14:06:09;16.90;99.90
5675;DHT22;2860;54.284;10.158;2023-05-10T14:08:35;16.90;99.90
5675;DHT22;2860;54.284;10.158;2023-05-10T14:11:01;17.00;99.90
5675;DHT22;2860;54.284;10.158;2023-05-10T14:13:26;17.10;99.90
5675;DHT22;2860;54.284;10.158;2023-05-10T14:15:53;17.20;99.90
5675;DHT22;2860;54.284;10.158;2023-05-10T14:18:19;17.30;99.90
5675;DHT22;2860;54.284;10.158;2023-05-10T14:20:44;17.40;99.90
5675;DHT22;2860;54.284;10.158;2023-05-10T14:23:10;17.30;99.90
5675;DHT22;2860;54.284;10.158;2023-05-10T14:25:36;17.40;99.90
5675;DHT22;2860;54.284;10.158;2023-05-10T14:28:02;17.40;99.90
5675;DHT22;2860;54.284;10.158;2023-05-10T14:30:28;17.50;99.90
5675;DHT22;2860;54.284;10.158;2023-05-10T14:32:53;17.70;99.90
5675;DHT22;2860;54.284;10.158;2023-05-10T14:35:19;17.90;99.90
5675;DHT22;2860;54.284;10.158;2023-05-10T14:37:45;18.10;99.90
5675;DHT22;2860;54.284;10.158;2023-05-10T14:40:11;18.10;99.90
5675;DHT22;2860;54.284;10.158;2023-05-10T14:42:37;18.30;99.90
5675;DHT22;2860;54.284;10.158;2023-05-10T14:45:03;18.40;99.90
5675;DHT22;2860;54.284;10.158;2023-05-10T14:47:29;18.50;99.90
5675;DHT22;2860;54.284;10.158;2023-05-10T14:49:54;18.60;99.90
5675;DHT22;2860;54.284;10.158;2023-05-10T14:52:20;18.70;99.90
5675;DHT22;2860;54.284;10.158;2023-05-10T14:54:45;18.80;99.90
5675;DHT22;2860;54.284;10.158;2023-05-10T14:57:11;18.90;99.90
5675;DHT22;2860;54.284;10.158;2023-05-10T14:59:37;18.90;99.90
5675;DHT22;2860;54.284;10.158;2023-05-10T15:02:02;18.90;99.90
5675;DHT22;2860;54.284;10.158;2023-05-10T15:04:29;18.90;99.90
5675;DHT22;2860;54.284;10.158;2023-05-10T15:06:55;18.80;99.90
5675;DHT22;2860;54.284;10.158;2023-05-10T15:09:24;18.70;99.90
5675;DHT22;2860;54.284;10.158;2023-05-10T15:11:50;18.70;99.90
5675;DHT22;2860;54.284;10.158;2023-05-10T15:14:15;18.60;99.90
5675;DHT22;2860;54.284;10.158;2023-05-10T15:16:41;18.60;99.90
5675;DHT22;2860;54.284;10.158;2023-05-10T15:19:06;18.50;99.90
5675;DHT22;2860;54.284;10.158;2023-05-10T15:21:32;18.60;99.90
5675;DHT22;2860;54.284;10.158;2023-05-10T15:24:04;18.70;99.90
5675;DHT22;2860;54.284;10.158;2023-05-10T15:26:30;18.70;99.90
5675;DHT22;2860;54.284;10.158;2023-05-10T15:28:56;18.70;99.90
5675;DHT22;2860;54.284;10.158;2023-05-10T15:31:21;18.80;99.90
5675;DHT22;2860;54.284;10.158;2023-05-10T15:33:47;18.90;99.90
5675;DHT22;2860;54.284;10.158;2023-05-10T15:36:12;19.00;99.90
5675;DHT22;2860;54.284;10.158;2023-05-10T15:38:38;19.00;99.90
5675;DHT22;2860;54.284;10.158;2023-05-10T15:41:03;18.90;99.90
5675;DHT22;2860;54.284;10.158;2023-05-10T15:43:29;18.80;99.90
5675;DHT22;2860;54.284;10.158;2023-05-10T15:45:54;18.90;99.90
5675;DHT22;2860;54.284;10.158;2023-05-10T15:48:20;18.90;99.90
5675;DHT22;2860;54.284;10.158;2023-05-10T15:50:45;18.90;99.90
5675;DHT22;2860;54.284;10.158;2023-05-10T15:53:11;18.90;99.90
5675;DHT22;2860;54.284;10.158;2023-05-10T15:55:36;18.90;99.90
5675;DHT22;2860;54.284;10.158;2023-05-10T15:58:02;18.90;99.90
5675;DHT22;2860;54.284;10.158;2023-05-10T16:00:27;18.90;99.90
5675;DHT22;2860;54.284;10.158;2023-05-10T16:02:53;18.90;99.90
5675;DHT22;2860;54.284;10.158;2023-05-10T16:05:18;18.80;99.90
5675;DHT22;2860;54.284;10.158;2023-05-10T16:07:44;18.70;99.90
5675;DHT22;2860;54.284;10.158;2023-05-10T16:10:11;18.70;99.90